KRAL/RAL METAR and TAF weather

Enter ICAO airport designator
Station Type Date Time Source
KRAL METAR 2019/06/27 07:53 UTC NOAA

KRAL 270753Z AUTO 28004KT 8SM CLR 16/13 A2999 RMK AO2 SLP140 T01610133 402780161


Station Type Date Time Source
KRAL Decoded METAR 2019/06/27 07:53 UTC NOAA

RIVERSIDE MUNICIPAL AIRPORT , CA, United States (KRAL) 33-57N 117-27W 252M
Jun 27, 2019 - 03:53 AM EDT / 2019.06.27 0753 UTC
Wind: from the W (280 degrees) at 5 MPH (4 KT):0
Visibility: 8 mile(s):0
Sky conditions: clear
Temperature: 61.0 F (16.1 C)
Dew Point: 55.9 F (13.3 C)
Relative Humidity: 83%
Pressure (altimeter): 29.99 in. Hg (1015 hPa)
ob: KRAL 270753Z AUTO 28004KT 8SM CLR 16/13 A2999 RMK AO2 SLP140 T01610133 402780161
cycle: 8

Station Type Date Time Source
KRAL TAF UTC NOAA

Error!

Example: see airport list